Time;durP1;ratioP1;P1;durP2;ratioP2;P2;SDS_P1;SDS_P2;PMS_P1;PMS_P2;Temp;Humidity;BMP_temperature;BMP_pressure;BME280_temperature;BME280_humidity;BME280_pressure;Samples;Min_cycle;Max_cycle;Signal;HPM_P1;HPM_P2
2023/09/20 00:00:24;;;;;;;3.80;1.10;;;;;;;25.31;28.61;101089.56;4946131;28;20062;-75
2023/09/20 00:02:53;;;;;;;4.20;1.20;;;;;;;25.31;27.97;101084.25;4942968;28;20494;-76
2023/09/20 00:05:24;;;;;;;4.45;0.90;;;;;;;25.22;28.99;101074.81;4957073;28;20053;-76
2023/09/20 00:07:55;;;;;;;4.53;1.17;;;;;;;25.21;28.31;101081.00;4948827;28;20167;-76
2023/09/20 00:10:24;;;;;;;4.90;1.10;;;;;;;25.12;27.50;101075.91;4946656;28;20051;-75
2023/09/20 00:12:52;;;;;;;3.45;1.08;;;;;;;25.06;28.49;101076.09;4947082;29;20316;-73
2023/09/20 00:15:21;;;;;;;2.97;0.90;;;;;;;24.94;28.38;101073.72;4951498;28;20472;-74
2023/09/20 00:17:54;;;;;;;6.80;1.08;;;;;;;24.92;28.98;101063.16;4949323;28;20044;-74
2023/09/20 00:20:23;;;;;;;5.30;1.30;;;;;;;24.94;28.62;101065.78;4950511;28;20043;-75
2023/09/20 00:22:53;;;;;;;8.68;1.33;;;;;;;24.96;29.84;101056.03;4945904;29;20062;-73
2023/09/20 00:25:22;;;;;;;4.10;1.15;;;;;;;24.95;30.00;101051.66;4946668;28;20090;-74
2023/09/20 00:27:50;;;;;;;4.18;1.00;;;;;;;24.90;29.80;101059.72;4948511;28;20058;-73
2023/09/20 00:30:28;;;;;;;7.40;2.17;;;;;;;24.81;29.98;101063.44;4940733;28;20056;-73
2023/09/20 00:32:57;;;;;;;3.83;0.88;;;;;;;24.75;29.98;101060.94;4931524;28;20709;-76
2023/09/20 00:35:33;;;;;;;5.07;1.20;;;;;;;24.70;29.39;101054.91;4942832;28;20043;-76
2023/09/20 00:38:04;;;;;;;5.45;0.93;;;;;;;24.65;29.63;101059.44;4942018;28;20067;-76
2023/09/20 00:40:35;;;;;;;3.55;0.95;;;;;;;24.61;30.54;101057.78;4950578;28;20054;-76
2023/09/20 00:43:06;;;;;;;3.67;1.10;;;;;;;24.55;30.38;101060.56;4946756;28;20145;-75
2023/09/20 00:45:38;;;;;;;4.90;1.40;;;;;;;24.43;31.19;101061.69;4948848;28;20047;-75
2023/09/20 00:48:08;;;;;;;3.72;1.17;;;;;;;24.35;31.38;101067.16;4947767;28;20192;-76
2023/09/20 00:50:38;;;;;;;5.35;1.08;;;;;;;24.23;31.34;101065.66;4953399;28;20047;-74
2023/09/20 00:53:11;;;;;;;3.22;1.23;;;;;;;24.11;32.46;101057.13;4947174;28;20422;-75
2023/09/20 00:55:43;;;;;;;4.15;0.85;;;;;;;24.02;31.74;101056.41;4950167;28;20138;-75
2023/09/20 00:58:16;;;;;;;4.45;1.00;;;;;;;23.97;32.59;101050.34;4947202;28;20519;-75
2023/09/20 01:00:45;;;;;;;2.55;0.90;;;;;;;23.85;32.88;101058.56;4937496;28;20114;-73
2023/09/20 01:03:18;;;;;;;3.13;1.13;;;;;;;23.76;32.05;101056.09;4937871;28;20501;-74
2023/09/20 01:05:48;;;;;;;3.78;1.17;;;;;;;23.69;32.64;101051.81;4944126;28;20051;-75
2023/09/20 01:08:19;;;;;;;3.90;0.90;;;;;;;23.54;32.37;101056.47;4944452;28;20051;-76
2023/09/20 01:10:52;;;;;;;4.05;1.15;;;;;;;23.46;32.97;101055.78;4942912;28;20588;-75
2023/09/20 01:13:33;;;;;;;3.50;0.90;;;;;;;23.36;32.06;101054.19;4940755;28;20127;-74
2023/09/20 01:16:05;;;;;;;2.57;0.63;;;;;;;23.30;32.16;101056.97;4920868;29;20103;-76
2023/09/20 01:18:39;;;;;;;7.95;1.30;;;;;;;23.23;33.78;101050.03;4919089;29;20293;-75
2023/09/20 01:21:07;;;;;;;4.38;1.17;;;;;;;23.14;32.87;101059.88;4921103;29;20111;-74
2023/09/20 01:23:38;;;;;;;5.18;1.08;;;;;;;23.09;33.24;101051.16;4925588;29;20048;-75
2023/09/20 01:26:07;;;;;;;6.35;1.20;;;;;;;23.03;33.34;101056.53;4925290;29;20051;-74
2023/09/20 01:28:36;;;;;;;3.80;0.90;;;;;;;22.97;34.70;101051.31;4918135;29;20134;-74
2023/09/20 01:31:06;;;;;;;6.57;0.98;;;;;;;22.92;33.74;101050.53;4928485;29;20055;-76
2023/09/20 01:33:35;;;;;;;4.90;1.58;;;;;;;22.87;33.75;101044.47;4924001;29;20062;-75
2023/09/20 01:36:04;;;;;;;7.70;1.05;;;;;;;22.80;33.84;101041.94;4923858;29;20047;-75
2023/09/20 01:38:33;;;;;;;5.88;1.20;;;;;;;22.80;34.33;101044.56;4929604;29;20079;-75
2023/09/20 01:41:06;;;;;;;7.03;1.40;;;;;;;22.76;35.29;101042.88;4927057;29;20090;-77
2023/09/20 01:43:36;;;;;;;4.53;1.20;;;;;;;22.71;35.81;101039.44;4917176;29;20499;-75
2023/09/20 01:46:05;;;;;;;5.90;1.48;;;;;;;22.65;35.49;101049.22;4927566;29;20056;-74
2023/09/20 01:48:35;;;;;;;2.85;0.95;;;;;;;22.56;36.60;101042.31;4922962;29;20573;-76
2023/09/20 01:51:09;;;;;;;5.75;0.90;;;;;;;22.43;35.81;101035.50;4926245;29;20051;-76
2023/09/20 01:53:38;;;;;;;4.68;1.40;;;;;;;22.34;37.03;101040.03;4915600;29;20044;-75
2023/09/20 01:56:09;;;;;;;6.45;1.13;;;;;;;22.26;37.31;101036.59;4925837;29;20048;-75
2023/09/20 01:58:37;;;;;;;3.33;1.08;;;;;;;22.11;36.82;101039.44;4921160;29;20169;-75
2023/09/20 02:01:08;;;;;;;4.45;1.10;;;;;;;21.98;37.00;101037.88;4924792;29;20079;-77
2023/09/20 02:03:40;;;;;;;3.28;1.00;;;;;;;21.82;37.28;101038.06;4920266;29;20061;-76
2023/09/20 02:06:08;;;;;;;4.10;0.95;;;;;;;21.70;37.53;101041.72;4923596;29;20119;-75
2023/09/20 02:08:37;;;;;;;8.15;1.33;;;;;;;21.60;38.45;101039.19;4917775;29;20398;-75
2023/09/20 02:11:11;;;;;;;4.45;1.10;;;;;;;21.46;38.04;101034.97;4924588;29;20043;-76
2023/09/20 02:13:40;;;;;;;3.25;1.10;;;;;;;21.37;38.45;101032.38;4923957;28;20135;-77
2023/09/20 02:16:08;;;;;;;4.47;1.10;;;;;;;21.29;39.47;101032.47;4950630;28;20075;-76
2023/09/20 02:18:38;;;;;;;5.45;0.95;;;;;;;21.19;39.89;101030.84;4934257;28;20079;-75
2023/09/20 02:21:09;;;;;;;7.22;1.40;;;;;;;21.12;40.39;101035.28;4934027;28;20099;-75
2023/09/20 02:23:37;;;;;;;5.35;1.20;;;;;;;21.00;39.73;101038.00;4933970;28;20079;-74
2023/09/20 02:26:08;;;;;;;4.63;1.27;;;;;;;20.88;39.99;101031.09;4945171;28;20039;-75
2023/09/20 02:28:39;;;;;;;8.23;1.65;;;;;;;20.80;40.60;101034.69;4941438;28;20054;-74
2023/09/20 02:31:13;;;;;;;5.10;1.35;;;;;;;20.68;41.04;101035.66;4945697;28;20561;-73
2023/09/20 02:33:42;;;;;;;3.67;1.25;;;;;;;20.54;41.02;101027.84;4941930;28;20056;-74
2023/09/20 02:36:11;;;;;;;6.80;1.40;;;;;;;20.39;41.60;101026.22;4948779;28;20051;-71
2023/09/20 02:38:40;;;;;;;5.82;1.15;;;;;;;20.29;41.77;101030.66;4949573;28;20053;-73
2023/09/20 02:41:09;;;;;;;6.03;1.17;;;;;;;20.21;41.80;101027.19;4946526;28;20047;-74
2023/09/20 02:43:43;;;;;;;3.63;1.00;;;;;;;20.15;42.03;101024.59;4942439;28;20055;-74
2023/09/20 02:46:11;;;;;;;4.32;1.42;;;;;;;20.15;42.87;101029.84;4943446;28;20047;-75
2023/09/20 02:48:40;;;;;;;6.07;1.10;;;;;;;20.11;42.85;101028.09;4950530;28;20047;-74
2023/09/20 02:51:08;;;;;;;8.68;1.15;;;;;;;20.07;42.74;101026.41;4954482;28;20051;-74
2023/09/20 02:53:37;;;;;;;4.53;1.15;;;;;;;20.02;42.88;101028.16;4954889;28;20055;-74
2023/09/20 02:56:08;;;;;;;7.43;1.77;;;;;;;19.99;43.40;101033.44;4949269;28;20102;-75
2023/09/20 02:58:36;;;;;;;4.72;1.20;;;;;;;19.89;44.01;101037.88;4945915;28;20489;-73
2023/09/20 03:01:09;;;;;;;6.72;1.70;;;;;;;19.81;43.88;101032.66;4943423;28;20631;-74
2023/09/20 03:03:43;;;;;;;9.23;1.10;;;;;;;19.76;44.39;101034.41;4951404;28;20075;-73
2023/09/20 03:06:12;;;;;;;7.80;1.42;;;;;;;19.70;44.46;101037.06;4943398;28;20047;-73
2023/09/20 03:08:44;;;;;;;9.23;1.50;;;;;;;19.63;44.04;101030.94;4948084;28;20056;-76
2023/09/20 03:11:19;;;;;;;8.52;1.30;;;;;;;19.59;43.90;101038.81;4938497;28;20072;-72
2023/09/20 03:13:48;;;;;;;5.68;1.10;;;;;;;19.53;43.73;101034.44;4947409;28;20055;-72
2023/09/20 03:16:20;;;;;;;3.95;0.93;;;;;;;19.48;43.86;101040.59;4961217;28;20052;-73
2023/09/20 03:18:51;;;;;;;8.07;1.27;;;;;;;19.42;44.86;101042.38;4952451;28;20055;-73
2023/09/20 03:21:20;;;;;;;3.17;0.70;;;;;;;19.32;45.92;101045.88;4947805;28;20533;-74
2023/09/20 03:23:49;;;;;;;3.70;0.77;;;;;;;19.13;45.82;101050.28;4946831;28;20059;-72
2023/09/20 03:26:18;;;;;;;4.97;1.08;;;;;;;19.05;46.53;101062.53;4952503;28;20100;-71
2023/09/20 03:28:48;;;;;;;4.85;1.42;;;;;;;18.93;46.52;101063.41;4952524;28;20130;-72
2023/09/20 03:31:17;;;;;;;4.13;1.10;;;;;;;18.92;46.85;101061.66;4953326;28;20170;-70
2023/09/20 03:33:49;;;;;;;3.50;0.68;;;;;;;18.92;46.78;101060.78;4952357;28;20050;-70
2023/09/20 03:36:18;;;;;;;6.63;1.15;;;;;;;18.90;47.82;101058.16;4955609;28;20047;-71
2023/09/20 03:38:47;;;;;;;3.60;0.73;;;;;;;18.87;48.36;101057.28;4951929;28;20095;-71
2023/09/20 03:41:16;;;;;;;4.40;0.70;;;;;;;18.80;47.46;101066.88;4945747;28;20059;-72
2023/09/20 03:43:46;;;;;;;4.72;1.13;;;;;;;18.74;47.11;101062.50;4946689;28;20058;-73
2023/09/20 03:46:15;;;;;;;3.00;0.85;;;;;;;18.69;46.86;101059.00;4946102;28;20167;-71
2023/09/20 03:48:44;;;;;;;3.17;0.65;;;;;;;18.67;47.12;101067.72;4946542;28;20502;-72
2023/09/20 03:51:16;;;;;;;5.82;0.93;;;;;;;18.65;46.95;101061.63;4953703;28;20055;-71
2023/09/20 03:53:45;;;;;;;4.03;0.82;;;;;;;18.60;47.61;101065.09;4940799;28;20458;-72
2023/09/20 03:56:17;;;;;;;4.13;1.20;;;;;;;18.50;47.37;101057.22;4946096;28;20051;-71
2023/09/20 03:58:46;;;;;;;6.35;1.77;;;;;;;18.51;47.65;101065.09;4947724;28;20058;-72
2023/09/20 04:01:15;;;;;;;2.88;1.00;;;;;;;18.45;47.24;101065.06;4945512;28;20776;-70
2023/09/20 04:03:45;;;;;;;6.05;1.08;;;;;;;18.42;47.53;101062.44;4948869;28;20059;-72
2023/09/20 04:06:14;;;;;;;5.15;1.02;;;;;;;18.38;47.69;101060.69;4940202;28;20063;-71
2023/09/20 04:08:44;;;;;;;4.90;1.17;;;;;;;18.34;48.09;101056.31;4950048;28;20062;-71
2023/09/20 04:11:13;;;;;;;2.42;0.80;;;;;;;18.29;48.92;101051.06;4944928;28;20052;-72
2023/09/20 04:13:42;;;;;;;9.27;1.35;;;;;;;18.25;48.74;101058.91;4941700;28;20051;-72
2023/09/20 04:16:10;;;;;;;6.75;1.27;;;;;;;18.22;49.71;101057.16;4929040;29;20115;-72
2023/09/20 04:18:39;;;;;;;5.95;1.00;;;;;;;18.17;49.34;101053.66;4932112;29;20054;-73
2023/09/20 04:21:08;;;;;;;2.65;0.95;;;;;;;18.11;49.61;101051.88;4927480;29;20055;-74
2023/09/20 04:23:36;;;;;;;4.32;1.00;;;;;;;18.08;49.42;101056.25;4929029;29;20055;-73
2023/09/20 04:26:06;;;;;;;4.47;1.08;;;;;;;18.06;50.01;101056.22;4924706;29;20236;-72
2023/09/20 04:28:35;;;;;;;4.63;1.20;;;;;;;18.04;49.12;101057.09;4927780;29;20107;-72
2023/09/20 04:31:09;;;;;;;3.13;0.93;;;;;;;18.01;49.52;101057.97;4929190;29;20157;-73
2023/09/20 04:33:38;;;;;;;4.28;1.48;;;;;;;18.00;50.09;101056.19;4930415;29;20048;-72
2023/09/20 04:36:07;;;;;;;2.47;1.10;;;;;;;17.99;49.69;101054.47;4927589;29;20043;-72
2023/09/20 04:38:36;;;;;;;4.30;1.10;;;;;;;17.98;51.42;101055.31;4927980;29;20470;-74
2023/09/20 04:41:11;;;;;;;4.82;1.70;;;;;;;17.95;51.82;101057.94;4926785;29;20346;-73
2023/09/20 04:43:41;;;;;;;6.25;0.98;;;;;;;17.87;53.02;101049.19;4929468;29;20114;-72
2023/09/20 04:46:10;;;;;;;7.03;1.20;;;;;;;17.74;53.04;101046.47;4924061;29;20048;-73
2023/09/20 04:48:49;;;;;;;5.55;1.08;;;;;;;17.64;55.78;101042.06;4923294;29;20044;-73
2023/09/20 04:51:17;;;;;;;2.58;0.70;;;;;;;17.55;55.24;101042.03;4924067;29;20048;-72
2023/09/20 04:53:46;;;;;;;2.25;0.75;;;;;;;17.56;55.68;101043.75;4931264;29;20062;-71
2023/09/20 04:56:16;;;;;;;4.20;0.95;;;;;;;17.52;54.77;101041.97;4920977;29;20279;-73
2023/09/20 04:58:47;;;;;;;2.92;1.05;;;;;;;17.49;54.99;101042.84;4930996;29;20082;-73
2023/09/20 05:01:17;;;;;;;3.05;0.90;;;;;;;17.45;56.52;101034.97;4921348;29;20083;-74
2023/09/20 05:03:50;;;;;;;2.35;0.82;;;;;;;17.41;55.79;101039.31;4924383;29;20051;-73
2023/09/20 05:06:18;;;;;;;3.00;0.93;;;;;;;17.37;55.99;101038.41;4926763;29;20095;-71
2023/09/20 05:08:47;;;;;;;1.85;0.90;;;;;;;17.34;55.41;101048.88;4933216;28;20047;-73
2023/09/20 05:11:18;;;;;;;4.70;1.23;;;;;;;17.29;55.40;101045.34;4922111;29;20103;-72
2023/09/20 05:13:47;;;;;;;5.43;0.75;;;;;;;17.25;55.08;101047.91;4919492;28;20134;-73
2023/09/20 05:16:16;;;;;;;2.20;0.80;;;;;;;17.20;55.10;101045.28;4949617;28;20063;-73
2023/09/20 05:18:44;;;;;;;2.65;1.42;;;;;;;17.15;55.29;101041.75;4950098;28;20457;-73
2023/09/20 05:21:16;;;;;;;4.55;0.95;;;;;;;17.12;54.47;101042.63;4943815;28;20516;-73
2023/09/20 05:23:46;;;;;;;1.95;0.80;;;;;;;17.09;54.95;101047.84;4949663;28;20055;-73
2023/09/20 05:26:14;;;;;;;6.53;1.63;;;;;;;17.03;54.14;101042.53;4949064;29;20493;-73
2023/09/20 05:28:46;;;;;;;7.50;1.77;;;;;;;16.99;54.57;101040.75;4956651;28;20552;-72
2023/09/20 05:31:17;;;;;;;7.15;1.38;;;;;;;16.89;55.29;101034.59;4942393;28;20847;-73
2023/09/20 05:33:46;;;;;;;5.93;1.20;;;;;;;16.90;56.01;101040.69;4947746;28;20058;-72
2023/09/20 05:36:15;;;;;;;1.55;0.80;;;;;;;16.84;57.35;101040.66;4952514;28;20046;-74
2023/09/20 05:38:44;;;;;;;5.68;1.10;;;;;;;16.81;57.85;101045.84;4949445;28;20047;-73
2023/09/20 05:41:15;;;;;;;8.70;0.88;;;;;;;16.78;57.77;101046.66;4947623;28;20135;-72
2023/09/20 05:43:48;;;;;;;5.22;1.08;;;;;;;16.75;57.52;101051.88;4949317;28;20110;-73
2023/09/20 05:46:17;;;;;;;3.40;0.75;;;;;;;16.67;57.84;101048.31;4941129;28;20048;-72
2023/09/20 05:48:46;;;;;;;7.72;1.45;;;;;;;16.53;59.04;101050.78;4941184;29;20508;-71
2023/09/20 05:51:21;;;;;;;1.90;0.85;;;;;;;16.38;60.66;101045.41;4945404;28;20052;-74
2023/09/20 05:53:50;;;;;;;3.50;1.02;;;;;;;16.30;61.35;101046.19;4944978;28;20227;-73
2023/09/20 05:56:18;;;;;;;3.88;0.90;;;;;;;16.24;60.83;101043.53;4941763;28;20044;-75
2023/09/20 05:58:49;;;;;;;6.25;1.10;;;;;;;16.23;61.02;101047.00;4943725;28;20050;-73
2023/09/20 06:01:17;;;;;;;3.40;0.80;;;;;;;16.20;60.79;101048.72;4944670;28;20066;-71
2023/09/20 06:03:46;;;;;;;6.13;1.40;;;;;;;16.17;59.96;101057.41;4946917;28;20059;-75
2023/09/20 06:06:14;;;;;;;2.05;0.85;;;;;;;16.17;60.38;101064.31;4936130;28;20052;-73
2023/09/20 06:08:45;;;;;;;10.45;1.15;;;;;;;16.11;60.24;101058.19;4940766;28;20055;-73
2023/09/20 06:11:14;;;;;;;4.55;1.50;;;;;;;16.08;59.86;101063.38;4940891;28;20044;-72
2023/09/20 06:13:45;;;;;;;7.85;1.02;;;;;;;16.04;59.84;101066.81;4948505;28;20579;-74
2023/09/20 06:16:16;;;;;;;4.00;0.80;;;;;;;16.01;59.77;101071.09;4954566;28;20150;-73
2023/09/20 06:18:46;;;;;;;6.25;1.52;;;;;;;15.93;61.34;101063.19;4951677;28;20051;-73
2023/09/20 06:21:15;;;;;;;5.88;1.30;;;;;;;15.81;62.25;101063.91;4952989;28;20050;-73
2023/09/20 06:23:43;;;;;;;4.30;1.27;;;;;;;15.76;62.70;101062.06;4947708;28;20494;-72
2023/09/20 06:26:12;;;;;;;2.90;1.02;;;;;;;15.75;62.72;101058.59;4944485;28;20074;-72
2023/09/20 06:28:42;;;;;;;4.15;0.80;;;;;;;15.73;63.78;101064.66;4947252;28;20099;-71
2023/09/20 06:31:13;;;;;;;6.30;0.93;;;;;;;15.70;63.53;101066.38;4941499;28;20043;-74
2023/09/20 06:33:44;;;;;;;3.10;1.00;;;;;;;15.69;63.89;101064.59;4944753;28;20047;-74
2023/09/20 06:36:27;;;;;;;6.20;1.13;;;;;;;15.69;63.90;101063.69;4953150;28;20047;-72
2023/09/20 06:38:57;;;;;;;9.20;1.30;;;;;;;15.66;63.88;101051.50;4943721;28;20298;-72
2023/09/20 06:41:25;;;;;;;3.90;1.20;;;;;;;15.72;63.80;101049.88;4951389;28;20383;-73
2023/09/20 06:43:54;;;;;;;5.72;1.20;;;;;;;15.64;65.31;101039.28;4944504;28;20059;-72
2023/09/20 06:46:24;;;;;;;2.78;0.65;;;;;;;15.61;64.53;101053.16;4950785;28;20304;-73
2023/09/20 06:48:55;;;;;;;2.85;1.08;;;;;;;15.56;65.02;101048.75;4954767;28;20059;-72
2023/09/20 06:51:24;;;;;;;5.90;1.63;;;;;;;15.50;64.66;101044.31;4954553;28;20481;-73
2023/09/20 06:53:58;;;;;;;4.05;0.90;;;;;;;15.53;64.31;101052.22;4946364;28;20048;-73
2023/09/20 06:56:27;;;;;;;3.85;1.02;;;;;;;15.56;64.58;101054.84;4948982;28;20051;-72
2023/09/20 06:58:55;;;;;;;4.13;0.80;;;;;;;15.58;64.44;101060.97;4944853;28;20138;-73
2023/09/20 07:01:25;;;;;;;6.82;1.17;;;;;;;15.59;64.45;101052.25;4950776;28;20394;-73
2023/09/20 07:03:56;;;;;;;3.58;1.00;;;;;;;15.61;64.56;101050.56;4939546;28;20055;-73
2023/09/20 07:06:24;;;;;;;10.35;1.25;;;;;;;15.60;63.73;101054.03;4946651;28;20051;-73
2023/09/20 07:08:54;;;;;;;8.70;1.08;;;;;;;15.62;64.50;101057.53;4948827;28;20509;-72
2023/09/20 07:11:22;;;;;;;7.05;1.13;;;;;;;15.58;65.01;101060.97;4940701;28;20075;-73
2023/09/20 07:13:51;;;;;;;2.08;0.68;;;;;;;15.55;64.70;101055.69;4953207;28;20451;-73
2023/09/20 07:16:30;;;;;;;;;;;;;;;;;;;;;
2023/09/20 07:19:04;;;;;;;6.38;1.27;;;;;;;15.57;64.99;101059.19;4944676;28;20051;-73
2023/09/20 07:21:34;;;;;;;7.43;1.45;;;;;;;15.58;64.43;101057.47;4950950;28;20134;-73
2023/09/20 07:24:03;;;;;;;6.78;1.38;;;;;;;15.59;66.06;101057.47;4950752;28;20069;-73
2023/09/20 07:26:33;;;;;;;3.22;0.88;;;;;;;15.63;65.63;101061.03;4948731;28;20051;-73
2023/09/20 07:29:05;;;;;;;5.13;0.95;;;;;;;15.66;66.18;101069.75;4943164;28;20051;-73
2023/09/20 07:31:36;;;;;;;3.77;0.90;;;;;;;15.66;66.27;101061.91;4938425;28;20425;-73
2023/09/20 07:34:19;;;;;;;4.38;1.00;;;;;;;15.63;66.64;101059.28;4944835;28;20047;-73
2023/09/20 07:36:50;;;;;;;3.17;1.23;;;;;;;15.49;67.58;101050.41;4936855;28;20493;-72
2023/09/20 07:39:21;;;;;;;4.45;1.00;;;;;;;15.48;68.43;101053.84;4938371;28;20052;-73
2023/09/20 07:41:52;;;;;;;4.30;1.58;;;;;;;15.40;69.48;101056.34;4938867;28;20150;-73
2023/09/20 07:44:23;;;;;;;7.95;1.50;;;;;;;15.32;70.61;101060.56;4941053;28;20165;-73
2023/09/20 07:46:54;;;;;;;6.87;1.20;;;;;;;15.26;70.65;101053.53;4946307;28;20059;-73
2023/09/20 07:49:27;;;;;;;4.97;1.55;;;;;;;15.26;72.80;101052.69;4947174;28;20047;-73
2023/09/20 07:51:55;;;;;;;6.80;0.98;;;;;;;15.27;73.68;101059.63;4947109;28;20083;-73
2023/09/20 07:54:24;;;;;;;7.78;1.45;;;;;;;15.26;72.84;101063.97;4946331;28;20042;-73
2023/09/20 07:56:53;;;;;;;4.93;1.10;;;;;;;15.26;72.48;101063.09;4944968;28;20044;-73
2023/09/20 07:59:25;;;;;;;4.38;1.25;;;;;;;15.28;72.11;101064.00;4940187;28;20106;-73
2023/09/20 08:01:54;;;;;;;4.10;1.02;;;;;;;15.31;72.08;101060.56;4943331;28;20077;-73
2023/09/20 08:04:25;;;;;;;8.85;1.73;;;;;;;15.34;72.02;101065.81;4937855;28;20457;-73
2023/09/20 08:06:53;;;;;;;5.45;1.13;;;;;;;15.38;72.35;101072.84;4944225;28;20130;-73
2023/09/20 08:09:23;;;;;;;8.77;1.38;;;;;;;15.38;72.41;101062.41;4950998;28;20102;-73
2023/09/20 08:12:00;;;;;;;2.38;1.05;;;;;;;15.40;71.94;101068.53;4942973;28;20047;-73
2023/09/20 08:14:30;;;;;;;7.03;1.35;;;;;;;15.43;71.38;101063.34;4942226;28;20054;-73
2023/09/20 08:19:46;;;;;;;3.85;0.73;;;;;;;15.45;71.46;101057.28;4947731;28;20078;-73
2023/09/20 08:22:18;;;;;;;6.30;1.17;;;;;;;15.48;71.14;101059.06;4954670;28;20424;-72
2023/09/20 09:00:49;;;;;;;5.03;1.02;;;;;;;15.21;74.06;101050.00;4953988;28;20420;-73
2023/09/20 09:03:19;;;;;;;2.78;0.90;;;;;;;15.24;74.37;101049.16;4949397;28;20681;-74
2023/09/20 09:05:48;;;;;;;4.70;1.23;;;;;;;15.26;73.37;101037.91;4940275;28;20083;-72
2023/09/20 09:08:19;;;;;;;5.90;1.30;;;;;;;15.29;72.88;101040.53;4943578;28;20055;-73
2023/09/20 09:10:47;;;;;;;3.25;1.00;;;;;;;15.33;73.11;101057.13;4943238;28;20491;-72
2023/09/20 09:13:16;;;;;;;3.70;1.23;;;;;;;15.35;73.82;101041.50;4942557;28;20050;-72
2023/09/20 09:15:47;;;;;;;4.93;1.27;;;;;;;15.39;73.20;101043.28;4950807;28;20421;-72
2023/09/20 09:18:18;;;;;;;3.92;1.13;;;;;;;15.40;73.66;101042.44;4957438;28;20052;-72
2023/09/20 09:20:47;;;;;;;6.75;1.40;;;;;;;15.39;72.44;101043.28;4942577;28;20051;-72
2023/09/20 09:23:35;;;;;;;3.03;1.75;;;;;;;15.41;72.87;101041.56;4943690;28;20588;-73
2023/09/20 09:26:04;;;;;;;6.85;1.45;;;;;;;15.40;72.88;101034.63;4941058;28;20061;-73
2023/09/20 09:28:33;;;;;;;4.55;0.93;;;;;;;15.40;73.39;101045.06;4934542;28;20055;-72
2023/09/20 09:31:05;;;;;;;3.97;1.02;;;;;;;15.38;73.87;101042.41;4940985;28;20059;-73
2023/09/20 09:33:34;;;;;;;1.30;0.80;;;;;;;15.43;73.80;101043.34;4935176;28;20413;-72
2023/09/20 09:36:02;;;;;;;4.15;1.02;;;;;;;15.45;73.42;101041.66;4937958;28;20130;-73
2023/09/20 09:38:34;;;;;;;3.47;1.48;;;;;;;15.44;71.94;101042.50;4933905;28;20052;-71
2023/09/20 09:41:04;;;;;;;2.38;1.02;;;;;;;15.42;72.15;101040.75;4946851;28;20109;-72
2023/09/20 09:43:34;;;;;;;5.28;1.08;;;;;;;15.38;72.62;101031.13;4946292;28;20039;-73
2023/09/20 09:46:08;;;;;;;5.80;1.33;;;;;;;15.31;72.97;101035.38;4946255;28;20075;-72
2023/09/20 09:48:38;;;;;;;4.50;1.00;;;;;;;15.21;73.21;101033.47;4951755;28;20058;-74
2023/09/20 09:51:08;;;;;;;3.92;0.80;;;;;;;15.17;73.76;101029.09;4943758;28;20086;-72
2023/09/20 09:53:39;;;;;;;5.57;1.40;;;;;;;15.16;73.66;101035.13;4949205;28;20138;-73
2023/09/20 09:56:09;;;;;;;7.05;1.30;;;;;;;15.16;74.41;101020.34;4946979;28;20071;-72
2023/09/20 09:58:37;;;;;;;4.70;0.98;;;;;;;15.16;73.77;101027.31;4943495;28;20044;-73
2023/09/20 10:01:06;;;;;;;5.82;1.33;;;;;;;15.15;73.85;101034.25;4941785;28;20109;-73
2023/09/20 10:03:36;;;;;;;8.63;1.20;;;;;;;15.16;73.62;101027.31;4946189;28;20134;-72
2023/09/20 10:06:12;;;;;;;8.27;1.35;;;;;;;15.16;74.25;101024.69;4944696;28;20106;-73
2023/09/20 10:08:49;;;;;;;2.67;0.95;;;;;;;15.17;74.53;101026.47;4945268;28;20047;-73
2023/09/20 10:11:18;;;;;;;7.75;1.40;;;;;;;15.16;74.10;101015.16;4940283;28;20062;-72
2023/09/20 10:13:47;;;;;;;8.07;1.40;;;;;;;15.15;75.00;101018.63;4943332;28;20110;-72
2023/09/20 10:16:17;;;;;;;5.13;1.40;;;;;;;15.16;74.77;101020.34;4942025;28;20094;-73
2023/09/20 10:18:58;;;;;;;6.90;0.85;;;;;;;15.16;75.04;101027.31;4945371;28;20043;-73
2023/09/20 10:21:27;;;;;;;2.92;0.88;;;;;;;15.18;74.51;101033.41;4944795;28;20253;-72
2023/09/20 10:24:00;;;;;;;2.88;1.10;;;;;;;15.18;74.87;101034.28;4945652;28;20524;-74
2023/09/20 10:26:29;;;;;;;3.90;0.80;;;;;;;15.15;75.36;101036.88;4948617;28;20078;-72
2023/09/20 10:29:19;;;;;;;3.63;0.88;;;;;;;15.12;75.34;101029.00;4942658;28;20106;-72
2023/09/20 10:31:55;;;;;;;4.75;1.10;;;;;;;15.13;75.42;101038.56;4955768;28;20054;-73
2023/09/20 10:34:26;;;;;;;4.18;1.30;;;;;;;15.13;74.97;101035.97;4946151;28;20059;-72
2023/09/20 10:36:55;;;;;;;2.40;0.93;;;;;;;15.16;75.36;101035.13;4944929;28;20043;-73
2023/09/20 10:39:29;;;;;;;4.00;0.90;;;;;;;15.16;75.06;101043.81;4949947;28;20059;-73
2023/09/20 10:42:10;;;;;;;3.22;1.23;;;;;;;15.17;75.12;101044.72;4942726;28;20700;-72
2023/09/20 10:44:42;;;;;;;7.47;1.52;;;;;;;15.16;75.78;101043.81;4954138;28;20133;-73
2023/09/20 10:47:14;;;;;;;8.38;1.42;;;;;;;15.20;76.09;101049.97;4943494;28;20498;-73
2023/09/20 10:49:50;;;;;;;9.02;1.45;;;;;;;15.18;75.13;101047.31;4947842;28;20047;-72
2023/09/20 10:53:07;;;;;;;;;;;;;;;;;;;;;
2023/09/20 10:55:39;;;;;;;4.03;0.60;;;;;;;15.21;72.86;101046.50;4948431;28;20051;-72
2023/09/20 10:58:08;;;;;;;1.05;0.60;;;;;;;15.21;73.08;101042.19;4956692;28;20065;-74
2023/09/20 11:00:37;;;;;;;1.17;0.40;;;;;;;15.24;72.36;101046.56;4957533;28;20410;-74
2023/09/20 11:03:11;;;;;;;3.22;0.68;;;;;;;15.25;72.29;101036.13;4950287;28;20047;-74
2023/09/20 11:05:42;;;;;;;2.28;0.52;;;;;;;15.26;72.23;101026.59;4945354;28;20048;-75
2023/09/20 11:08:14;;;;;;;2.58;0.73;;;;;;;15.29;71.75;101026.63;4952527;28;20135;-74
2023/09/20 11:10:45;;;;;;;1.23;0.30;;;;;;;15.26;72.38;101017.06;4957445;28;20060;-74
2023/09/20 11:13:15;;;;;;;1.13;0.50;;;;;;;15.32;72.33;101017.97;4943016;28;20102;-73
2023/09/20 11:15:47;;;;;;;1.30;0.30;;;;;;;15.31;72.46;101024.06;4951810;28;20298;-73
2023/09/20 11:18:19;;;;;;;1.65;0.45;;;;;;;15.33;72.09;101024.97;4940108;28;20047;-72
2023/09/20 11:20:50;;;;;;;0.88;0.68;;;;;;;15.34;72.11;101024.09;4940681;28;20071;-73
2023/09/20 11:23:19;;;;;;;0.75;0.30;;;;;;;15.36;71.94;101030.22;4946694;28;20051;-73
2023/09/20 11:25:50;;;;;;;1.33;0.40;;;;;;;15.40;71.07;101035.50;4946562;28;20051;-73
2023/09/20 11:28:21;;;;;;;3.20;0.50;;;;;;;15.40;71.69;101034.63;4951037;28;20053;-72
2023/09/20 11:30:53;;;;;;;1.63;0.70;;;;;;;15.36;73.00;101027.59;4950810;28;20053;-74
2023/09/20 11:33:29;;;;;;;2.70;1.38;;;;;;;15.29;72.95;101017.09;4946886;28;20449;-72
2023/09/20 11:35:58;;;;;;;2.38;0.28;;;;;;;15.38;73.88;101031.13;4945031;28;20494;-72
2023/09/20 11:38:28;;;;;;;2.83;0.32;;;;;;;15.39;72.62;101028.53;4949389;28;20051;-73
2023/09/20 11:41:03;;;;;;;0.65;0.30;;;;;;;15.41;72.73;101033.75;4953808;28;20051;-73
2023/09/20 11:43:32;;;;;;;2.83;0.70;;;;;;;15.42;72.60;101038.13;4943012;28;20151;-72
2023/09/20 11:46:01;;;;;;;1.63;0.60;;;;;;;15.43;72.36;101042.47;4950319;28;20074;-72
2023/09/20 11:48:32;;;;;;;1.77;0.30;;;;;;;15.43;72.48;101052.91;4938000;28;20048;-73
2023/09/20 11:51:04;;;;;;;0.63;0.20;;;;;;;15.42;71.50;101053.78;4949630;28;20068;-73
2023/09/20 11:53:34;;;;;;;2.27;0.80;;;;;;;15.39;71.34;101049.41;4943049;28;20137;-71
2023/09/20 11:56:06;;;;;;;2.38;0.73;;;;;;;15.40;71.21;101055.50;4949837;28;20493;-75
2023/09/20 11:58:36;;;;;;;3.03;0.65;;;;;;;15.38;70.76;101063.28;4937975;28;20436;-74
2023/09/20 12:01:08;;;;;;;3.17;0.77;;;;;;;15.37;70.97;101045.00;4950647;28;20051;-74
2023/09/20 12:03:37;;;;;;;0.85;0.30;;;;;;;15.30;71.06;101049.22;4942426;28;20051;-73
2023/09/20 12:06:08;;;;;;;2.00;0.50;;;;;;;15.23;71.48;101052.59;4950146;28;20051;-73
2023/09/20 12:08:37;;;;;;;0.40;0.30;;;;;;;15.15;71.44;101057.72;4955618;28;20055;-73
2023/09/20 12:11:09;;;;;;;2.95;0.50;;;;;;;15.08;71.52;101061.09;4949580;28;20039;-74
2023/09/20 12:13:38;;;;;;;2.00;0.75;;;;;;;15.05;71.87;101061.03;4947427;28;20047;-74
2023/09/20 12:16:06;;;;;;;2.47;0.45;;;;;;;15.01;70.85;101057.50;4943131;28;20059;-74
2023/09/20 12:18:37;;;;;;;1.98;0.60;;;;;;;14.97;71.64;101062.63;4943583;28;20051;-74
2023/09/20 12:21:09;;;;;;;3.53;0.55;;;;;;;14.96;71.26;101068.72;4940568;28;20067;-73